createdAt,value
2023-05-17T00:00:35.688Z,0.00
2023-05-17T00:01:35.674Z,0.00
2023-05-17T00:02:35.677Z,0.00
2023-05-17T00:03:35.685Z,0.00
2023-05-17T00:04:35.679Z,0.00
2023-05-17T00:05:35.605Z,0.00
2023-05-17T00:06:35.673Z,0.00
2023-05-17T00:07:35.619Z,0.00
2023-05-17T00:08:35.651Z,0.00
2023-05-17T00:09:35.551Z,0.00
2023-05-17T00:10:35.549Z,0.00
2023-05-17T00:11:35.531Z,0.00
2023-05-17T00:12:35.542Z,0.00
2023-05-17T00:13:35.509Z,0.00
2023-05-17T00:14:35.492Z,0.00
2023-05-17T00:15:35.476Z,0.00
2023-05-17T00:16:35.449Z,0.00
2023-05-17T00:17:35.601Z,0.00
2023-05-17T00:18:35.510Z,0.00
2023-05-17T00:19:35.526Z,0.00
2023-05-17T00:20:35.425Z,0.00
2023-05-17T00:21:35.390Z,0.00
2023-05-17T00:22:35.427Z,0.00
2023-05-17T00:23:35.373Z,0.00
2023-05-17T00:24:35.341Z,0.00
2023-05-17T00:25:35.336Z,0.00
2023-05-17T00:26:35.370Z,0.00
2023-05-17T00:27:35.305Z,0.00
2023-05-17T00:28:35.312Z,0.00
2023-05-17T00:29:35.308Z,0.00
2023-05-17T00:30:35.271Z,0.00
2023-05-17T00:31:35.300Z,0.00
2023-05-17T00:32:35.266Z,0.00
2023-05-17T00:33:35.262Z,0.00
2023-05-17T00:34:35.253Z,0.00
2023-05-17T00:35:35.203Z,0.00
2023-05-17T00:36:35.198Z,0.00
2023-05-17T00:37:35.184Z,0.00
2023-05-17T00:38:35.168Z,0.00
2023-05-17T00:39:35.173Z,0.00
2023-05-17T00:40:35.135Z,0.00
2023-05-17T00:41:35.134Z,0.00
2023-05-17T00:42:35.105Z,0.00
2023-05-17T00:43:35.148Z,0.00
2023-05-17T00:44:35.088Z,0.00
2023-05-17T00:45:35.074Z,0.00
2023-05-17T00:46:35.059Z,0.00
2023-05-17T00:47:35.119Z,0.00
2023-05-17T00:48:35.146Z,0.00
2023-05-17T00:49:35.016Z,0.00
2023-05-17T00:50:35.017Z,0.00
2023-05-17T00:51:35.009Z,0.00
2023-05-17T00:52:34.969Z,0.00
2023-05-17T00:53:34.965Z,0.00
2023-05-17T00:54:34.959Z,0.00
2023-05-17T00:55:34.976Z,0.00
2023-05-17T00:56:34.919Z,0.00
2023-05-17T00:57:34.925Z,0.00
2023-05-17T00:58:34.982Z,0.00
2023-05-17T00:59:34.876Z,0.00
2023-05-17T01:00:34.852Z,0.00
2023-05-17T01:01:34.847Z,0.00
2023-05-17T01:02:34.938Z,0.00
2023-05-17T01:03:34.886Z,0.00
2023-05-17T01:04:34.839Z,0.00
2023-05-17T01:05:34.792Z,0.00
2023-05-17T01:06:34.793Z,0.00
2023-05-17T01:07:34.766Z,0.00
2023-05-17T01:08:34.754Z,0.00
2023-05-17T01:09:34.759Z,0.00
2023-05-17T01:10:34.714Z,0.00
2023-05-17T01:11:34.724Z,0.00
2023-05-17T01:12:34.703Z,0.00
2023-05-17T01:13:34.715Z,0.00
2023-05-17T01:14:34.685Z,0.00
2023-05-17T01:15:34.660Z,0.00
2023-05-17T01:16:34.647Z,0.00
2023-05-17T01:17:34.721Z,0.00
2023-05-17T01:18:34.742Z,0.00
2023-05-17T01:19:34.693Z,0.00
2023-05-17T01:20:34.674Z,0.00
2023-05-17T01:21:34.601Z,0.00
2023-05-17T01:22:34.560Z,0.00
2023-05-17T01:23:34.608Z,0.00
2023-05-17T01:24:34.525Z,0.00
2023-05-17T01:25:34.541Z,0.00
2023-05-17T01:26:34.506Z,0.00
2023-05-17T01:27:34.532Z,0.00
2023-05-17T01:28:34.495Z,0.00
2023-05-17T01:29:34.457Z,0.00
2023-05-17T01:30:34.456Z,0.00
2023-05-17T01:31:34.438Z,0.00
2023-05-17T01:32:34.484Z,0.00
2023-05-17T01:33:34.596Z,0.00
2023-05-17T01:34:34.428Z,0.00
2023-05-17T01:35:34.392Z,0.00
2023-05-17T01:36:34.376Z,0.00
2023-05-17T01:37:34.385Z,0.00
2023-05-17T01:38:34.342Z,0.00
2023-05-17T01:39:34.340Z,0.00
2023-05-17T01:40:34.304Z,0.00
2023-05-17T01:41:34.340Z,0.00
2023-05-17T01:42:34.291Z,0.00
2023-05-17T01:43:34.285Z,0.00
2023-05-17T01:44:34.296Z,0.00
2023-05-17T01:45:34.253Z,0.00
2023-05-17T01:46:34.258Z,0.00
2023-05-17T01:47:34.330Z,0.00
2023-05-17T01:48:34.239Z,0.00
2023-05-17T01:49:34.215Z,0.00
2023-05-17T01:50:34.184Z,0.00
2023-05-17T01:51:34.172Z,0.00
2023-05-17T01:52:34.170Z,0.00
2023-05-17T01:53:34.213Z,0.00
2023-05-17T01:54:34.119Z,0.00
2023-05-17T01:55:34.128Z,0.00
2023-05-17T01:56:34.169Z,0.00
2023-05-17T01:57:34.115Z,0.00
2023-05-17T01:58:34.134Z,0.00
2023-05-17T01:59:34.105Z,0.00
2023-05-17T02:00:34.126Z,0.00
2023-05-17T02:01:34.150Z,0.00
2023-05-17T02:02:34.054Z,0.00
2023-05-17T02:03:34.038Z,0.00
2023-05-17T02:04:34.019Z,0.00
2023-05-17T02:05:34.002Z,0.00
2023-05-17T02:06:33.959Z,0.00
2023-05-17T02:07:33.962Z,0.00
2023-05-17T02:08:33.935Z,0.00
2023-05-17T02:09:33.928Z,0.00
2023-05-17T02:10:33.909Z,0.00
2023-05-17T02:11:33.921Z,0.00
2023-05-17T02:12:34.869Z,0.00
2023-05-17T02:13:33.892Z,0.00
2023-05-17T02:14:33.856Z,0.00
2023-05-17T02:15:33.868Z,0.00
2023-05-17T02:16:33.867Z,0.00
2023-05-17T02:17:33.907Z,0.00
2023-05-17T02:18:33.926Z,0.00
2023-05-17T02:19:33.861Z,0.00
2023-05-17T02:20:33.761Z,0.00
2023-05-17T02:21:33.865Z,0.00
2023-05-17T02:22:33.761Z,0.00
2023-05-17T02:23:33.749Z,0.00
2023-05-17T02:24:33.739Z,0.00
2023-05-17T02:25:33.733Z,0.00
2023-05-17T02:26:33.703Z,0.00
2023-05-17T02:27:33.684Z,0.00
2023-05-17T02:28:33.709Z,0.00
2023-05-17T02:29:33.656Z,0.00
2023-05-17T02:30:33.666Z,0.00
2023-05-17T02:31:33.646Z,0.00
2023-05-17T02:32:33.658Z,0.00
2023-05-17T02:33:33.708Z,0.00
2023-05-17T02:34:33.584Z,0.00
2023-05-17T02:35:33.632Z,0.00
2023-05-17T02:36:33.641Z,0.00
2023-05-17T02:37:33.632Z,0.00
2023-05-17T02:38:33.539Z,0.00
2023-05-17T02:39:33.544Z,0.00
2023-05-17T02:40:33.517Z,0.00
2023-05-17T02:41:33.507Z,0.00
2023-05-17T02:42:33.495Z,0.00
2023-05-17T02:43:33.467Z,0.00
2023-05-17T02:44:33.489Z,0.00
2023-05-17T02:45:33.459Z,0.00
2023-05-17T02:46:33.464Z,0.00
2023-05-17T02:47:33.468Z,0.00
2023-05-17T02:48:33.417Z,0.00
2023-05-17T02:49:33.405Z,0.00
2023-05-17T02:50:33.363Z,0.00
2023-05-17T02:51:33.402Z,0.00
2023-05-17T02:52:33.362Z,0.00
2023-05-17T02:53:33.356Z,0.00
2023-05-17T02:54:33.315Z,0.00
2023-05-17T02:55:33.333Z,0.00
2023-05-17T02:56:33.343Z,0.00
2023-05-17T02:57:33.320Z,0.00
2023-05-17T02:58:33.278Z,0.00
2023-05-17T02:59:33.251Z,0.00
2023-05-17T03:00:33.239Z,0.00
2023-05-17T03:01:33.253Z,0.00
2023-05-17T03:02:33.349Z,0.00
2023-05-17T03:03:33.370Z,0.00
2023-05-17T03:04:33.249Z,0.00
2023-05-17T03:05:33.178Z,0.00
2023-05-17T03:06:33.170Z,0.00
2023-05-17T03:07:33.160Z,0.00
2023-05-17T03:08:33.135Z,0.00
2023-05-17T03:09:33.117Z,0.00
2023-05-17T03:10:34.178Z,0.00
2023-05-17T03:11:33.110Z,0.00
2023-05-17T03:12:33.094Z,4.00
2023-05-17T03:13:33.070Z,4.00
2023-05-17T03:14:33.048Z,4.00
2023-05-17T03:15:33.069Z,0.00
2023-05-17T03:16:33.056Z,4.00
2023-05-17T03:17:33.150Z,4.00
2023-05-17T03:18:33.175Z,4.00
2023-05-17T03:19:33.002Z,4.00
2023-05-17T03:20:32.987Z,8.00
2023-05-17T03:21:33.002Z,4.00
2023-05-17T03:22:32.956Z,8.00
2023-05-17T03:23:32.915Z,8.00
2023-05-17T03:24:32.918Z,12.00
2023-05-17T03:25:32.922Z,12.00
2023-05-17T03:26:32.931Z,12.00
2023-05-17T03:27:32.940Z,12.00
2023-05-17T03:28:32.854Z,12.00
2023-05-17T03:29:32.902Z,16.00
2023-05-17T03:30:32.958Z,20.00
2023-05-17T03:31:32.819Z,20.00
2023-05-17T03:32:32.876Z,24.00
2023-05-17T03:33:32.866Z,28.00
2023-05-17T03:34:33.041Z,28.00
2023-05-17T03:35:32.769Z,32.00
2023-05-17T03:36:32.763Z,36.00
2023-05-17T03:37:32.762Z,36.00
2023-05-17T03:38:32.754Z,40.00
2023-05-17T03:39:32.751Z,44.00
2023-05-17T03:40:32.776Z,48.00
2023-05-17T03:41:32.709Z,52.00
2023-05-17T03:42:32.685Z,52.00
2023-05-17T03:43:32.851Z,56.00
2023-05-17T03:44:32.649Z,68.00
2023-05-17T03:45:32.640Z,68.00
2023-05-17T03:46:32.624Z,68.00
2023-05-17T03:47:32.627Z,72.00
2023-05-17T03:48:34.508Z,72.00
2023-05-17T03:49:32.579Z,76.00
2023-05-17T03:50:32.591Z,76.00
2023-05-17T03:51:32.550Z,80.00
2023-05-17T03:52:32.589Z,84.00
2023-05-17T03:53:32.539Z,84.00
2023-05-17T03:54:32.521Z,88.00
2023-05-17T03:55:32.509Z,92.00
2023-05-17T03:56:32.535Z,104.00
2023-05-17T03:57:32.508Z,116.00
2023-05-17T03:58:32.476Z,116.00
2023-05-17T03:59:32.469Z,112.00
2023-05-17T04:00:32.431Z,104.00
2023-05-17T04:01:32.420Z,112.00
2023-05-17T04:02:32.458Z,128.00
2023-05-17T04:03:32.425Z,140.00
2023-05-17T04:04:32.423Z,152.00
2023-05-17T04:05:32.379Z,160.00
2023-05-17T04:06:32.365Z,168.00
2023-05-17T04:07:32.361Z,176.00
2023-05-17T04:08:32.333Z,192.00
2023-05-17T04:09:32.349Z,192.00
2023-05-17T04:10:32.322Z,188.00
2023-05-17T04:11:32.294Z,196.00
2023-05-17T04:12:32.287Z,204.00
2023-05-17T04:13:32.262Z,204.00
2023-05-17T04:14:32.263Z,216.00
2023-05-17T04:15:32.249Z,220.00
2023-05-17T04:16:32.215Z,220.00
2023-05-17T04:17:32.247Z,216.00
2023-05-17T04:18:32.261Z,228.00
2023-05-17T04:19:32.325Z,232.00
2023-05-17T04:20:32.176Z,232.00
2023-05-17T04:21:32.163Z,236.00
2023-05-17T04:22:32.188Z,224.00
2023-05-17T04:23:32.146Z,228.00
2023-05-17T04:24:32.207Z,260.00
2023-05-17T04:25:32.168Z,304.00
2023-05-17T04:26:32.084Z,268.00
2023-05-17T04:27:32.095Z,228.00
2023-05-17T04:28:32.060Z,308.00
2023-05-17T04:29:32.040Z,372.00
2023-05-17T04:30:32.025Z,392.00
2023-05-17T04:31:32.011Z,396.00
2023-05-17T04:32:32.054Z,388.00
2023-05-17T04:33:32.036Z,392.00
2023-05-17T04:34:31.969Z,400.00
2023-05-17T04:35:31.978Z,412.00
2023-05-17T04:36:31.962Z,372.00
2023-05-17T04:37:31.949Z,272.00
2023-05-17T04:38:31.933Z,208.00
2023-05-17T04:39:31.900Z,256.00
2023-05-17T04:40:31.932Z,300.00
2023-05-17T04:41:31.980Z,320.00
2023-05-17T04:42:31.875Z,324.00
2023-05-17T04:43:31.847Z,340.00
2023-05-17T04:44:31.841Z,316.00
2023-05-17T04:45:31.884Z,280.00
2023-05-17T04:46:31.844Z,304.00
2023-05-17T04:47:31.893Z,288.00
2023-05-17T04:48:31.904Z,328.00
2023-05-17T04:49:31.884Z,360.00
2023-05-17T04:50:31.790Z,416.00
2023-05-17T04:51:31.751Z,448.00
2023-05-17T04:52:31.732Z,432.00
2023-05-17T04:53:31.736Z,400.00
2023-05-17T04:54:31.766Z,484.00
2023-05-17T04:55:31.730Z,664.00
2023-05-17T04:56:31.668Z,836.00
2023-05-17T04:57:31.677Z,772.00
2023-05-17T04:58:31.635Z,604.00
2023-05-17T04:59:31.637Z,528.00
2023-05-17T05:00:31.645Z,520.00
2023-05-17T05:01:31.599Z,524.00
2023-05-17T05:02:31.636Z,504.00
2023-05-17T05:03:31.654Z,568.00
2023-05-17T05:04:31.681Z,632.00
2023-05-17T05:05:31.550Z,728.00
2023-05-17T05:06:31.551Z,764.00
2023-05-17T05:07:31.519Z,744.00
2023-05-17T05:08:31.538Z,796.00
2023-05-17T05:09:31.539Z,852.00
2023-05-17T05:10:31.491Z,992.00
2023-05-17T05:11:31.516Z,1048.00
2023-05-17T05:12:31.444Z,1040.00
2023-05-17T05:13:31.516Z,1108.00
2023-05-17T05:14:31.436Z,1108.00
2023-05-17T05:15:31.429Z,972.00
2023-05-17T05:16:31.393Z,1060.00
2023-05-17T05:17:31.480Z,1176.00
2023-05-17T05:18:31.432Z,1148.00
2023-05-17T05:19:31.384Z,1136.00
2023-05-17T05:20:31.335Z,1336.00
2023-05-17T05:21:31.336Z,1048.00
2023-05-17T05:22:31.344Z,1168.00
2023-05-17T05:23:31.302Z,972.00
2023-05-17T05:24:31.288Z,984.00
2023-05-17T05:25:31.392Z,944.00
2023-05-17T05:26:31.255Z,1004.00
2023-05-17T05:27:31.257Z,1004.00
2023-05-17T05:28:31.291Z,928.00
2023-05-17T05:29:31.210Z,916.00
2023-05-17T05:30:31.218Z,928.00
2023-05-17T05:31:31.324Z,912.00
2023-05-17T05:32:31.234Z,904.00
2023-05-17T05:33:31.208Z,888.00
2023-05-17T05:34:31.164Z,904.00
2023-05-17T05:35:31.263Z,932.00
2023-05-17T05:36:31.130Z,940.00
2023-05-17T05:37:31.185Z,932.00
2023-05-17T05:38:31.117Z,932.00
2023-05-17T05:39:31.084Z,956.00
2023-05-17T05:40:31.189Z,952.00
2023-05-17T05:41:31.066Z,908.00
2023-05-17T05:42:31.058Z,916.00
2023-05-17T05:43:31.034Z,920.00
2023-05-17T05:44:31.029Z,924.00
2023-05-17T05:45:31.008Z,916.00
2023-05-17T05:46:31.182Z,944.00
2023-05-17T05:47:31.002Z,952.00
2023-05-17T05:48:31.984Z,972.00
2023-05-17T05:49:30.954Z,1080.00
2023-05-17T05:50:31.217Z,1268.00
2023-05-17T05:51:30.952Z,1504.00
2023-05-17T05:52:30.910Z,1608.00
2023-05-17T05:53:30.921Z,1684.00
2023-05-17T05:54:30.882Z,1660.00
2023-05-17T05:55:30.861Z,1640.00
2023-05-17T05:56:30.901Z,1532.00
2023-05-17T05:57:30.859Z,1520.00
2023-05-17T05:58:30.833Z,1604.00
2023-05-17T05:59:30.817Z,1624.00
2023-05-17T06:00:31.047Z,1460.00
2023-05-17T06:01:30.784Z,1304.00
2023-05-17T06:02:30.798Z,1412.00
2023-05-17T06:03:30.755Z,1588.00
2023-05-17T06:04:44.059Z,1536.00
2023-05-17T06:05:31.927Z,1520.00
2023-05-17T06:06:30.820Z,1612.00
2023-05-17T06:07:30.710Z,1784.00
2023-05-17T06:08:30.702Z,1580.00
2023-05-17T06:09:30.702Z,1316.00
2023-05-17T06:10:31.054Z,1164.00
2023-05-17T06:11:30.670Z,1108.00
2023-05-17T06:12:30.648Z,1096.00
2023-05-17T06:13:30.625Z,1120.00
2023-05-17T06:14:30.704Z,1152.00
2023-05-17T06:15:30.599Z,1180.00
2023-05-17T06:16:30.606Z,1184.00
2023-05-17T06:17:30.599Z,1196.00
2023-05-17T06:18:30.629Z,1240.00
2023-05-17T06:19:30.690Z,1312.00
2023-05-17T06:20:30.770Z,1388.00
2023-05-17T06:21:30.504Z,1320.00
2023-05-17T06:22:30.553Z,1184.00
2023-05-17T06:23:30.490Z,1232.00
2023-05-17T06:24:30.497Z,1360.00
2023-05-17T06:25:30.502Z,1444.00
2023-05-17T06:26:30.456Z,1392.00
2023-05-17T06:27:30.441Z,1224.00
2023-05-17T06:28:30.474Z,1192.00
2023-05-17T06:29:30.426Z,1200.00
2023-05-17T06:30:30.958Z,1188.00
2023-05-17T06:31:30.411Z,1264.00
2023-05-17T06:32:30.425Z,1228.00
2023-05-17T06:33:30.450Z,1176.00
2023-05-17T06:34:30.340Z,1156.00
2023-05-17T06:35:35.331Z,1140.00
2023-05-17T06:36:32.563Z,1160.00
2023-05-17T06:37:30.320Z,1044.00
2023-05-17T06:38:30.311Z,1128.00
2023-05-17T06:39:30.278Z,1148.00
2023-05-17T06:40:30.393Z,1072.00
2023-05-17T06:41:30.245Z,1072.00
2023-05-17T06:42:30.266Z,1140.00
2023-05-17T06:43:30.238Z,1124.00
2023-05-17T06:44:30.200Z,1040.00
2023-05-17T06:45:30.199Z,1060.00
2023-05-17T06:46:30.202Z,1052.00
2023-05-17T06:47:30.274Z,1068.00
2023-05-17T06:48:30.233Z,1096.00
2023-05-17T06:49:30.133Z,1148.00
2023-05-17T06:50:30.366Z,1092.00
2023-05-17T06:51:30.119Z,1064.00
2023-05-17T06:52:30.120Z,1036.00
2023-05-17T06:53:30.066Z,1040.00
2023-05-17T06:54:30.066Z,1080.00
2023-05-17T06:55:31.666Z,1116.00
2023-05-17T06:56:30.058Z,1196.00
2023-05-17T06:57:30.046Z,1404.00
2023-05-17T06:58:30.005Z,1396.00
2023-05-17T06:59:29.998Z,1296.00
2023-05-17T07:00:30.335Z,1228.00
2023-05-17T07:01:29.973Z,1336.00
2023-05-17T07:02:30.370Z,1492.00
2023-05-17T07:03:29.997Z,1560.00
2023-05-17T07:04:30.009Z,1596.00
2023-05-17T07:05:30.202Z,1368.00
2023-05-17T07:06:29.918Z,1372.00
2023-05-17T07:07:29.887Z,1252.00
2023-05-17T07:08:29.893Z,1332.00
2023-05-17T07:09:29.849Z,1136.00
2023-05-17T07:10:29.869Z,1148.00
2023-05-17T07:11:29.827Z,1192.00
2023-05-17T07:12:29.825Z,1236.00
2023-05-17T07:13:29.822Z,1200.00
2023-05-17T07:14:29.818Z,1208.00
2023-05-17T07:15:30.014Z,1240.00
2023-05-17T07:16:29.756Z,1284.00
2023-05-17T07:17:29.783Z,1264.00
2023-05-17T07:18:29.853Z,1344.00
2023-05-17T07:19:29.908Z,1368.00
2023-05-17T07:20:29.744Z,1356.00
2023-05-17T07:21:29.694Z,1400.00
2023-05-17T07:22:29.699Z,1440.00
2023-05-17T07:23:29.669Z,1396.00
2023-05-17T07:24:29.672Z,1352.00
2023-05-17T07:25:29.796Z,1240.00
2023-05-17T07:26:29.703Z,1192.00
2023-05-17T07:27:29.619Z,1168.00
2023-05-17T07:28:29.652Z,1144.00
2023-05-17T07:29:29.597Z,1160.00
2023-05-17T07:30:29.581Z,1204.00
2023-05-17T07:31:29.562Z,1264.00
2023-05-17T07:32:29.619Z,1304.00
2023-05-17T07:33:29.528Z,1336.00
2023-05-17T07:34:29.601Z,1456.00
2023-05-17T07:35:29.706Z,1600.00
2023-05-17T07:36:29.543Z,1676.00
2023-05-17T07:37:29.477Z,1728.00
2023-05-17T07:38:29.480Z,1592.00
2023-05-17T07:39:29.509Z,1540.00
2023-05-17T07:40:29.442Z,1576.00
2023-05-17T07:41:29.428Z,1664.00
2023-05-17T07:42:29.404Z,1808.00
2023-05-17T07:43:29.419Z,2068.00
2023-05-17T07:44:29.408Z,2376.00
2023-05-17T07:45:29.634Z,2468.00
2023-05-17T07:46:29.379Z,2564.00
2023-05-17T07:47:29.483Z,2732.00
2023-05-17T07:48:29.544Z,2908.00
2023-05-17T07:49:30.565Z,3088.00
2023-05-17T07:50:29.304Z,3256.00
2023-05-17T07:51:29.303Z,3028.00
2023-05-17T07:52:29.277Z,2916.00
2023-05-17T07:53:29.278Z,2672.00
2023-05-17T07:54:29.268Z,2132.00
2023-05-17T07:55:29.425Z,1804.00
2023-05-17T07:56:29.250Z,1652.00
2023-05-17T07:57:29.240Z,1528.00
2023-05-17T07:58:29.186Z,1592.00
2023-05-17T07:59:29.194Z,1736.00
2023-05-17T08:00:29.172Z,1704.00
2023-05-17T08:01:29.193Z,1648.00
2023-05-17T08:02:29.176Z,1524.00
2023-05-17T08:03:29.120Z,1488.00
2023-05-17T08:04:29.157Z,1580.00
2023-05-17T08:05:29.362Z,1632.00
2023-05-17T08:06:29.198Z,1784.00
2023-05-17T08:07:29.084Z,1856.00
2023-05-17T08:08:29.732Z,1940.00
2023-05-17T08:09:29.058Z,2116.00
2023-05-17T08:10:29.049Z,2112.00
2023-05-17T08:11:29.055Z,1992.00
2023-05-17T08:12:29.000Z,1976.00
2023-05-17T08:13:28.979Z,1944.00
2023-05-17T08:14:28.983Z,1860.00
2023-05-17T08:15:29.212Z,1900.00
2023-05-17T08:16:28.950Z,2092.00
2023-05-17T08:17:28.970Z,2260.00
2023-05-17T08:18:29.011Z,2564.00
2023-05-17T08:19:29.002Z,2884.00
2023-05-17T08:20:28.915Z,2952.00
2023-05-17T08:21:29.104Z,2876.00
2023-05-17T08:22:28.864Z,2944.00
2023-05-17T08:23:28.857Z,2788.00
2023-05-17T08:24:28.851Z,2464.00
2023-05-17T08:25:29.229Z,2360.00
2023-05-17T08:26:28.801Z,2168.00
2023-05-17T08:27:28.802Z,2172.00
2023-05-17T08:28:28.791Z,2108.00
2023-05-17T08:29:28.790Z,2248.00
2023-05-17T08:30:29.540Z,2284.00
2023-05-17T08:31:28.742Z,2308.00
2023-05-17T08:32:28.790Z,2328.00
2023-05-17T08:33:28.876Z,2352.00
2023-05-17T08:34:28.710Z,2424.00
2023-05-17T08:35:29.216Z,2472.00
2023-05-17T08:36:28.674Z,2536.00
2023-05-17T08:37:28.666Z,2496.00
2023-05-17T08:38:28.659Z,2496.00
2023-05-17T08:39:28.662Z,2624.00
2023-05-17T08:40:28.770Z,2720.00
2023-05-17T08:41:29.272Z,2828.00
2023-05-17T08:42:28.584Z,2804.00
2023-05-17T08:43:28.610Z,2792.00
2023-05-17T08:44:28.630Z,2864.00
2023-05-17T08:45:28.692Z,2876.00
2023-05-17T08:46:28.532Z,2776.00
2023-05-17T08:47:28.538Z,2616.00
2023-05-17T08:48:28.533Z,2532.00
2023-05-17T08:49:28.553Z,2500.00
2023-05-17T08:50:28.851Z,2412.00
2023-05-17T08:51:28.472Z,2588.00
2023-05-17T08:52:28.457Z,2572.00
2023-05-17T08:53:28.502Z,2400.00
2023-05-17T08:54:28.535Z,2368.00
2023-05-17T08:55:28.422Z,2588.00
2023-05-17T08:56:28.379Z,2588.00
2023-05-17T08:57:28.405Z,2532.00
2023-05-17T08:58:28.388Z,2520.00
2023-05-17T08:59:28.367Z,2508.00
2023-05-17T09:00:28.696Z,2632.00
2023-05-17T09:01:29.904Z,2784.00
2023-05-17T09:02:28.534Z,3208.00
2023-05-17T09:03:28.376Z,3780.00
2023-05-17T09:04:28.340Z,4372.00
2023-05-17T09:05:28.315Z,4600.00
2023-05-17T09:06:28.304Z,4412.00
2023-05-17T09:07:28.272Z,4152.00
2023-05-17T09:08:28.235Z,3812.00
2023-05-17T09:09:28.220Z,3728.00
2023-05-17T09:10:28.537Z,3580.00
2023-05-17T09:11:28.223Z,3472.00
2023-05-17T09:12:28.191Z,3260.00
2023-05-17T09:13:28.166Z,3120.00
2023-05-17T09:14:28.137Z,3112.00
2023-05-17T09:15:28.158Z,3084.00
2023-05-17T09:16:28.170Z,2932.00
2023-05-17T09:17:28.162Z,3192.00
2023-05-17T09:18:28.204Z,3368.00
2023-05-17T09:19:28.284Z,3672.00
2023-05-17T09:20:28.180Z,4420.00
2023-05-17T09:21:28.082Z,4956.00
2023-05-17T09:22:28.037Z,5040.00
2023-05-17T09:23:28.042Z,5168.00
2023-05-17T09:24:28.004Z,5540.00
2023-05-17T09:25:28.014Z,5580.00
2023-05-17T09:26:28.064Z,5808.00
2023-05-17T09:27:27.977Z,5768.00
2023-05-17T09:28:27.956Z,5672.00
2023-05-17T09:29:27.951Z,4960.00
2023-05-17T09:30:28.177Z,4548.00
2023-05-17T09:31:27.928Z,4300.00
2023-05-17T09:32:27.964Z,4364.00
2023-05-17T09:33:27.959Z,4260.00
2023-05-17T09:34:27.933Z,3624.00
2023-05-17T09:35:28.072Z,3188.00
2023-05-17T09:36:27.906Z,3240.00
2023-05-17T09:37:27.845Z,3644.00
2023-05-17T09:38:27.830Z,4432.00
2023-05-17T09:39:27.843Z,4876.00
2023-05-17T09:40:27.786Z,4844.00
2023-05-17T09:41:27.782Z,4816.00
2023-05-17T09:42:27.764Z,4552.00
2023-05-17T09:43:27.776Z,4004.00
2023-05-17T09:44:27.760Z,3680.00
2023-05-17T09:45:27.878Z,3456.00
2023-05-17T09:46:27.750Z,3356.00
2023-05-17T09:47:27.830Z,3368.00
2023-05-17T09:48:27.919Z,3444.00
2023-05-17T09:49:27.675Z,3572.00
2023-05-17T09:50:27.662Z,3792.00
2023-05-17T09:51:27.645Z,4280.00
2023-05-17T09:52:27.635Z,4420.00
2023-05-17T09:53:27.624Z,4548.00
2023-05-17T09:54:27.620Z,4732.00
2023-05-17T09:55:28.221Z,4480.00
2023-05-17T09:56:27.577Z,4284.00
2023-05-17T09:57:27.608Z,4068.00
2023-05-17T09:58:27.563Z,3536.00
2023-05-17T09:59:27.540Z,3352.00
2023-05-17T10:00:27.534Z,4076.00
2023-05-17T10:01:27.528Z,4180.00
2023-05-17T10:02:27.545Z,4064.00
2023-05-17T10:03:27.620Z,5088.00
2023-05-17T10:04:27.507Z,5704.00
2023-05-17T10:05:27.689Z,6348.00
2023-05-17T10:06:43.639Z,6188.00
2023-05-17T10:07:28.460Z,5740.00
2023-05-17T10:08:27.412Z,4872.00
2023-05-17T10:09:27.405Z,6352.00
2023-05-17T10:10:27.390Z,5084.00
2023-05-17T10:11:27.395Z,4784.00
2023-05-17T10:12:27.380Z,4692.00
2023-05-17T10:13:27.362Z,4940.00
2023-05-17T10:14:27.714Z,4740.00
2023-05-17T10:15:27.560Z,7060.00
2023-05-17T10:16:27.342Z,5912.00
2023-05-17T10:17:27.364Z,7380.00
2023-05-17T10:18:27.390Z,7504.00
2023-05-17T10:19:27.443Z,6384.00
2023-05-17T10:20:27.242Z,7816.00
2023-05-17T10:21:27.253Z,6616.00
2023-05-17T10:22:27.266Z,6376.00
2023-05-17T10:23:27.228Z,6032.00
2023-05-17T10:24:27.195Z,7280.00
2023-05-17T10:25:27.367Z,6544.00
2023-05-17T10:26:27.197Z,5876.00
2023-05-17T10:27:27.179Z,7056.00
2023-05-17T10:28:27.154Z,5848.00
2023-05-17T10:29:27.144Z,6148.00
2023-05-17T10:30:27.135Z,6716.00
2023-05-17T10:31:27.129Z,6632.00
2023-05-17T10:32:27.400Z,6072.00
2023-05-17T10:33:27.114Z,6484.00
2023-05-17T10:34:27.067Z,8860.00
2023-05-17T10:35:27.206Z,7228.00
2023-05-17T10:36:27.041Z,7388.00
2023-05-17T10:37:27.026Z,6136.00
2023-05-17T10:38:38.597Z,10072.00
2023-05-17T10:39:28.040Z,8572.00
2023-05-17T10:40:26.993Z,7500.00
2023-05-17T10:41:26.991Z,6764.00
2023-05-17T10:42:26.958Z,6512.00
2023-05-17T10:43:26.943Z,6696.00
2023-05-17T10:44:26.926Z,7272.00
2023-05-17T10:45:27.300Z,6512.00
2023-05-17T10:46:26.913Z,8952.00
2023-05-17T10:47:26.909Z,8836.00
2023-05-17T10:48:26.964Z,8412.00
2023-05-17T10:49:27.095Z,8792.00
2023-05-17T10:50:27.140Z,9732.00
2023-05-17T10:51:26.829Z,9828.00
2023-05-17T10:52:26.819Z,9456.00
2023-05-17T10:53:26.823Z,8708.00
2023-05-17T10:54:26.806Z,5068.00
2023-05-17T10:55:26.929Z,9964.00
2023-05-17T10:56:26.756Z,10916.00
2023-05-17T10:57:27.736Z,10828.00
2023-05-17T10:58:26.774Z,9296.00
2023-05-17T10:59:26.820Z,8400.00
2023-05-17T11:00:26.754Z,10236.00
2023-05-17T11:01:26.701Z,9576.00
2023-05-17T11:02:26.709Z,7656.00
2023-05-17T11:03:26.691Z,36512.00
2023-05-17T11:04:26.778Z,35104.00
2023-05-17T11:05:26.722Z,37760.00
2023-05-17T11:06:26.724Z,41216.00
2023-05-17T11:07:26.621Z,43872.00
2023-05-17T11:08:26.593Z,45024.00
2023-05-17T11:09:26.622Z,39104.00
2023-05-17T11:10:26.613Z,14500.00
2023-05-17T11:11:26.563Z,10448.00
2023-05-17T11:12:26.545Z,49952.00
2023-05-17T11:13:26.534Z,48128.00
2023-05-17T11:14:26.507Z,46144.00
2023-05-17T11:15:26.706Z,52800.00
2023-05-17T11:16:26.499Z,60288.00
2023-05-17T11:17:26.554Z,56192.00
2023-05-17T11:18:30.467Z,41088.00
2023-05-17T11:19:26.506Z,28288.00
2023-05-17T11:20:26.821Z,41600.00
2023-05-17T11:21:26.475Z,46176.00
2023-05-17T11:22:26.407Z,51904.00
2023-05-17T11:23:26.421Z,48608.00
2023-05-17T11:24:26.385Z,43360.00
2023-05-17T11:25:26.383Z,43392.00
2023-05-17T11:26:26.349Z,48000.00
2023-05-17T11:27:26.329Z,50944.00
2023-05-17T11:28:26.344Z,50496.00
2023-05-17T11:29:26.316Z,51840.00
2023-05-17T11:30:26.508Z,53952.00
2023-05-17T11:31:26.304Z,55488.00
2023-05-17T11:32:26.276Z,56608.00
2023-05-17T11:33:33.664Z,58848.00
2023-05-17T11:34:27.304Z,54688.00
2023-05-17T11:35:26.272Z,53024.00
2023-05-17T11:36:26.216Z,50688.00
2023-05-17T11:37:26.229Z,52608.00
2023-05-17T11:38:26.177Z,54400.00
2023-05-17T11:39:26.178Z,51744.00
2023-05-17T11:40:26.283Z,49696.00
2023-05-17T11:41:27.413Z,50912.00
2023-05-17T11:42:26.156Z,51488.00
2023-05-17T11:43:26.134Z,52192.00
2023-05-17T11:44:26.112Z,36224.00
2023-05-17T11:45:26.200Z,22656.00
2023-05-17T11:46:26.093Z,12836.00
2023-05-17T11:47:26.147Z,57312.00
2023-05-17T11:48:26.453Z,21120.00
2023-05-17T11:49:35.010Z,13864.00
2023-05-17T11:50:27.356Z,13608.00
2023-05-17T11:51:26.018Z,24928.00
2023-05-17T11:52:27.332Z,53248.00
2023-05-17T11:53:26.001Z,54720.00
2023-05-17T11:54:25.985Z,59232.00
2023-05-17T11:55:25.972Z,11392.00
2023-05-17T11:56:39.603Z,12672.00
2023-05-17T11:57:26.934Z,9724.00
2023-05-17T11:58:25.939Z,8028.00
2023-05-17T11:59:25.906Z,7412.00
2023-05-17T12:00:26.003Z,55520.00
2023-05-17T12:01:25.891Z,61152.00
2023-05-17T12:02:25.908Z,54528.00
2023-05-17T12:03:25.872Z,51072.00
2023-05-17T12:04:25.926Z,55008.00
2023-05-17T12:05:25.819Z,56864.00
2023-05-17T12:06:25.853Z,54496.00
2023-05-17T12:07:25.819Z,56352.00
2023-05-17T12:08:25.802Z,57408.00
2023-05-17T12:09:25.768Z,56416.00
2023-05-17T12:10:25.757Z,53440.00
2023-05-17T12:11:25.749Z,54400.00
2023-05-17T12:12:25.764Z,26976.00
2023-05-17T12:13:25.716Z,55392.00
2023-05-17T12:14:25.711Z,50880.00
2023-05-17T12:15:25.679Z,52928.00
2023-05-17T12:16:25.680Z,54368.00
2023-05-17T12:17:25.760Z,55360.00
2023-05-17T12:18:25.703Z,54176.00
2023-05-17T12:19:25.743Z,56864.00
2023-05-17T12:20:25.680Z,59648.00
2023-05-17T12:21:25.634Z,59392.00
2023-05-17T12:22:25.663Z,58400.00
2023-05-17T12:23:25.570Z,55968.00
2023-05-17T12:24:25.567Z,11780.00
2023-05-17T12:25:25.847Z,59616.00
2023-05-17T12:26:25.574Z,36096.00